Time;durP1;ratioP1;P1;durP2;ratioP2;P2;SDS_P1;SDS_P2;PMS_P1;PMS_P2;Temp;Humidity;BMP_temperature;BMP_pressure;BME280_temperature;BME280_humidity;BME280_pressure;Samples;Min_cycle;Max_cycle;Signal;HPM_P1;HPM_P2
2023/05/01 00:01:31;;;;;;;;;;;14.50;74.90;;;;;;5002059;28;19941;-75
2023/05/01 00:03:58;;;;;;;;;;;14.50;75.00;;;;;;5004476;28;19932;-77
2023/05/01 00:06:24;;;;;;;;;;;14.50;75.10;;;;;;4997485;28;19932;-76
2023/05/01 00:08:51;;;;;;;;;;;14.40;75.10;;;;;;4993143;28;19926;-76
2023/05/01 00:11:19;;;;;;;;;;;14.40;75.20;;;;;;4998607;28;19933;-76
2023/05/01 00:13:46;;;;;;;;;;;14.40;75.20;;;;;;5000551;28;19930;-76
2023/05/01 00:16:12;;;;;;;;;;;14.40;75.30;;;;;;4991015;28;20028;-76
2023/05/01 00:18:39;;;;;;;;;;;14.40;75.40;;;;;;4997127;28;20387;-76
2023/05/01 00:21:05;;;;;;;;;;;14.30;75.40;;;;;;4999891;28;20384;-76
2023/05/01 00:23:32;;;;;;;;;;;14.30;75.50;;;;;;4997311;28;20687;-76
2023/05/01 00:25:59;;;;;;;;;;;14.30;75.50;;;;;;4999012;28;20097;-76
2023/05/01 00:28:27;;;;;;;;;;;14.20;75.50;;;;;;4996962;28;19937;-76
2023/05/01 00:30:53;;;;;;;;;;;14.20;75.70;;;;;;5000155;28;19930;-76
2023/05/01 00:33:20;;;;;;;;;;;14.20;75.70;;;;;;4998838;28;19944;-76
2023/05/01 00:35:46;;;;;;;;;;;14.20;75.90;;;;;;4997418;28;20146;-75
2023/05/01 00:38:13;;;;;;;;;;;14.10;75.90;;;;;;4997099;28;19933;-76
2023/05/01 00:40:42;;;;;;;;;;;14.10;76.00;;;;;;4999610;28;19933;-76
2023/05/01 00:43:10;;;;;;;;;;;14.10;76.10;;;;;;4997931;28;20024;-75
2023/05/01 00:45:38;;;;;;;;;;;14.10;76.20;;;;;;4998204;28;19929;-75
2023/05/01 00:48:05;;;;;;;;;;;14.00;76.20;;;;;;4998704;28;19930;-75
2023/05/01 00:50:33;;;;;;;;;;;14.00;76.30;;;;;;4994245;28;21295;-76
2023/05/01 00:53:00;;;;;;;;;;;14.00;76.40;;;;;;4999841;28;20490;-76
2023/05/01 00:55:27;;;;;;;;;;;14.00;76.50;;;;;;5003467;28;19933;-76
2023/05/01 00:57:53;;;;;;;;;;;14.00;76.60;;;;;;5000730;28;19937;-75
2023/05/01 01:00:22;;;;;;;;;;;13.90;76.60;;;;;;5001557;28;20020;-75
2023/05/01 01:02:50;;;;;;;;;;;13.90;76.70;;;;;;5002645;28;19930;-75
2023/05/01 01:05:17;;;;;;;;;;;13.90;76.80;;;;;;5003049;28;20396;-76
2023/05/01 01:07:49;;;;;;;;;;;13.90;76.90;;;;;;5002841;28;19933;-75
2023/05/01 01:10:18;;;;;;;;;;;13.80;77.00;;;;;;5000612;28;20086;-76
2023/05/01 01:12:50;;;;;;;;;;;13.80;77.10;;;;;;5003861;28;19935;-75
2023/05/01 01:15:21;;;;;;;;;;;13.80;77.20;;;;;;5002499;28;19937;-75
2023/05/01 01:17:53;;;;;;;;;;;13.80;77.30;;;;;;5001850;28;19929;-75
2023/05/01 01:20:24;;;;;;;;;;;13.70;77.30;;;;;;5000259;28;20631;-75
2023/05/01 01:22:53;;;;;;;;;;;13.70;77.40;;;;;;5004774;28;19936;-76
2023/05/01 01:25:29;;;;;;;;;;;13.70;77.50;;;;;;5002756;28;19934;-75
2023/05/01 01:28:10;;;;;;;;;;;13.70;77.60;;;;;;4999218;28;20040;-76
2023/05/01 01:30:55;;;;;;;;;;;13.70;78.40;;;;;;4997853;28;19936;-75
2023/05/01 01:33:37;;;;;;;;;;;13.70;77.70;;;;;;5003146;28;19979;-76
2023/05/01 01:36:07;;;;;;;;;;;13.60;77.80;;;;;;5001436;28;20535;-75
2023/05/01 01:38:37;;;;;;;;;;;13.60;77.80;;;;;;5003338;28;19933;-75
2023/05/01 01:41:07;;;;;;;;;;;13.60;77.90;;;;;;5003987;28;20012;-76
2023/05/01 01:43:39;;;;;;;;;;;13.50;77.90;;;;;;5002931;28;20474;-75
2023/05/01 01:46:07;;;;;;;;;;;13.50;78.00;;;;;;4997797;28;20917;-75
2023/05/01 01:48:35;;;;;;;;;;;13.50;78.00;;;;;;5000622;28;19952;-75
2023/05/01 01:51:06;;;;;;;;;;;13.50;78.10;;;;;;5000775;28;20207;-76
2023/05/01 01:53:34;;;;;;;;;;;13.50;78.20;;;;;;5002370;28;19952;-76
2023/05/01 01:56:02;;;;;;;;;;;13.40;78.20;;;;;;5000777;28;20019;-76
2023/05/01 01:58:29;;;;;;;;;;;13.40;78.20;;;;;;5000812;28;19926;-76
2023/05/01 02:00:56;;;;;;;;;;;13.40;78.30;;;;;;5003873;28;19964;-76
2023/05/01 02:03:24;;;;;;;;;;;13.40;78.30;;;;;;4999661;28;19930;-76
2023/05/01 02:05:52;;;;;;;;;;;13.40;78.40;;;;;;4997829;28;19932;-76
2023/05/01 02:08:21;;;;;;;;;;;13.40;78.50;;;;;;5002881;28;20360;-75
2023/05/01 02:10:47;;;;;;;;;;;13.30;78.50;;;;;;4998628;28;19980;-76
2023/05/01 02:13:16;;;;;;;;;;;13.30;78.60;;;;;;5002328;28;20703;-76
2023/05/01 02:15:44;;;;;;;;;;;13.30;78.60;;;;;;5004093;28;19976;-75
2023/05/01 02:18:12;;;;;;;;;;;13.30;78.70;;;;;;5000217;28;19941;-76
2023/05/01 02:20:38;;;;;;;;;;;13.30;78.80;;;;;;5001105;28;19929;-76
2023/05/01 02:23:06;;;;;;;;;;;13.30;78.90;;;;;;5003122;28;19929;-76
2023/05/01 02:25:35;;;;;;;;;;;13.30;79.00;;;;;;5002498;28;20022;-76
2023/05/01 02:28:02;;;;;;;;;;;13.20;79.00;;;;;;4999526;28;19925;-76
2023/05/01 02:30:29;;;;;;;;;;;13.20;79.00;;;;;;5001156;28;20018;-76
2023/05/01 02:32:56;;;;;;;;;;;13.20;79.10;;;;;;5003136;28;19937;-76
2023/05/01 02:35:23;;;;;;;;;;;13.20;79.10;;;;;;5001448;28;19934;-75
2023/05/01 02:37:50;;;;;;;;;;;13.20;79.20;;;;;;5002313;28;19930;-76
2023/05/01 02:40:16;;;;;;;;;;;13.20;79.30;;;;;;4998099;28;19951;-76
2023/05/01 02:42:46;;;;;;;;;;;13.20;79.30;;;;;;5001876;28;19940;-76
2023/05/01 02:45:17;;;;;;;;;;;13.10;79.30;;;;;;4997278;28;20024;-76
2023/05/01 02:47:45;;;;;;;;;;;13.10;79.40;;;;;;4994065;28;19979;-76
2023/05/01 02:50:13;;;;;;;;;;;13.20;79.50;;;;;;4997173;28;19929;-76
2023/05/01 02:52:40;;;;;;;;;;;13.10;79.50;;;;;;4998876;28;20415;-76
2023/05/01 02:55:08;;;;;;;;;;;13.10;79.50;;;;;;5001735;28;20385;-76
2023/05/01 02:57:34;;;;;;;;;;;13.10;79.50;;;;;;4998257;28;20021;-76
2023/05/01 03:00:03;;;;;;;;;;;13.10;79.60;;;;;;5004321;28;20752;-76
2023/05/01 03:02:29;;;;;;;;;;;13.10;79.70;;;;;;4999985;28;20016;-75
2023/05/01 03:04:56;;;;;;;;;;;13.10;79.70;;;;;;4997169;28;20622;-76
2023/05/01 03:07:23;;;;;;;;;;;13.00;79.70;;;;;;5000220;28;19988;-76
2023/05/01 03:09:49;;;;;;;;;;;13.00;79.70;;;;;;5001778;28;20529;-76
2023/05/01 03:12:16;;;;;;;;;;;13.00;79.80;;;;;;5000017;28;20367;-75
2023/05/01 03:14:43;;;;;;;;;;;13.00;79.80;;;;;;4999900;28;19941;-76
2023/05/01 03:17:12;;;;;;;;;;;13.00;79.90;;;;;;4995818;28;19933;-76
2023/05/01 03:19:39;;;;;;;;;;;13.00;79.90;;;;;;4995685;28;20012;-76
2023/05/01 03:22:05;;;;;;;;;;;13.00;80.00;;;;;;4997914;28;19936;-76
2023/05/01 03:24:32;;;;;;;;;;;13.00;80.10;;;;;;5000397;28;20427;-76
2023/05/01 03:26:59;;;;;;;;;;;12.90;80.00;;;;;;4996462;28;20420;-75
2023/05/01 03:29:26;;;;;;;;;;;12.90;80.10;;;;;;4999482;28;19929;-75
2023/05/01 03:31:52;;;;;;;;;;;12.90;80.10;;;;;;5001023;28;19961;-76
2023/05/01 03:34:20;;;;;;;;;;;12.90;80.10;;;;;;4999073;28;19937;-75
2023/05/01 03:36:46;;;;;;;;;;;12.90;80.10;;;;;;4995232;28;19933;-76
2023/05/01 03:39:13;;;;;;;;;;;12.90;80.20;;;;;;4997758;28;19933;-75
2023/05/01 03:41:39;;;;;;;;;;;12.90;80.30;;;;;;4997272;28;19929;-76
2023/05/01 03:44:06;;;;;;;;;;;12.90;80.30;;;;;;5000552;28;19944;-76
2023/05/01 03:46:33;;;;;;;;;;;12.80;80.40;;;;;;5000020;28;19940;-75
2023/05/01 03:48:59;;;;;;;;;;;12.80;80.40;;;;;;4999968;28;19929;-76
2023/05/01 03:51:27;;;;;;;;;;;12.80;80.40;;;;;;4998955;28;19940;-76
2023/05/01 03:53:55;;;;;;;;;;;12.80;80.50;;;;;;4999912;28;19934;-76
2023/05/01 03:56:24;;;;;;;;;;;12.70;80.40;;;;;;4997133;28;19936;-75
2023/05/01 03:58:51;;;;;;;;;;;12.70;80.50;;;;;;5002013;28;19929;-75
2023/05/01 04:01:17;;;;;;;;;;;12.70;80.50;;;;;;4996798;28;19936;-75
2023/05/01 04:03:44;;;;;;;;;;;12.70;80.60;;;;;;5000682;28;19953;-75
2023/05/01 04:06:11;;;;;;;;;;;12.70;80.60;;;;;;4997210;28;20514;-76
2023/05/01 04:08:39;;;;;;;;;;;12.70;80.60;;;;;;4999763;28;20340;-76
2023/05/01 04:11:06;;;;;;;;;;;12.70;80.70;;;;;;4998124;28;19926;-75
2023/05/01 04:13:32;;;;;;;;;;;12.70;80.70;;;;;;4999925;28;20600;-75
2023/05/01 04:15:59;;;;;;;;;;;12.70;80.70;;;;;;4994771;28;19930;-76
2023/05/01 04:18:25;;;;;;;;;;;12.70;80.80;;;;;;4994132;28;19998;-75
2023/05/01 04:20:52;;;;;;;;;;;12.60;80.70;;;;;;4998326;28;19929;-76
2023/05/01 04:23:19;;;;;;;;;;;12.70;80.90;;;;;;5000361;28;20356;-75
2023/05/01 04:25:47;;;;;;;;;;;12.60;80.90;;;;;;5002821;28;19925;-76
2023/05/01 04:28:13;;;;;;;;;;;12.60;80.90;;;;;;5000049;28;20023;-76
2023/05/01 04:30:40;;;;;;;;;;;12.60;81.00;;;;;;4998075;28;19926;-76
2023/05/01 04:33:10;;;;;;;;;;;12.60;81.00;;;;;;5003732;28;19936;-76
2023/05/01 04:35:38;;;;;;;;;;;12.60;81.10;;;;;;5000611;28;19944;-76
2023/05/01 04:38:04;;;;;;;;;;;12.60;81.10;;;;;;5002131;28;19929;-76
2023/05/01 04:40:31;;;;;;;;;;;12.50;81.10;;;;;;5002061;28;19937;-75
2023/05/01 04:42:59;;;;;;;;;;;12.50;81.10;;;;;;5002907;28;19936;-75
2023/05/01 04:45:26;;;;;;;;;;;12.50;81.10;;;;;;5002769;28;19933;-76
2023/05/01 04:47:52;;;;;;;;;;;12.50;81.30;;;;;;5002119;28;19929;-75
2023/05/01 04:50:19;;;;;;;;;;;12.50;81.20;;;;;;5002386;28;19930;-75
2023/05/01 04:52:46;;;;;;;;;;;12.50;81.20;;;;;;5003660;28;19936;-76
2023/05/01 04:55:12;;;;;;;;;;;12.50;81.30;;;;;;5003020;28;19929;-76
2023/05/01 04:57:39;;;;;;;;;;;12.50;81.30;;;;;;5002756;28;19930;-75
2023/05/01 05:00:08;;;;;;;;;;;12.50;81.40;;;;;;5002908;28;19925;-76
2023/05/01 05:02:34;;;;;;;;;;;12.40;81.30;;;;;;4999051;28;19940;-76
2023/05/01 05:05:01;;;;;;;;;;;12.50;81.50;;;;;;4995531;28;19940;-76
2023/05/01 05:07:27;;;;;;;;;;;12.40;81.40;;;;;;5000475;28;19948;-76
2023/05/01 05:09:54;;;;;;;;;;;12.40;81.50;;;;;;4999855;28;19936;-75
2023/05/01 05:12:20;;;;;;;;;;;12.40;81.50;;;;;;5001750;28;19929;-76
2023/05/01 05:14:47;;;;;;;;;;;12.40;81.50;;;;;;5001980;28;19937;-76
2023/05/01 05:17:15;;;;;;;;;;;12.40;81.60;;;;;;4996697;28;20020;-75
2023/05/01 05:19:42;;;;;;;;;;;12.40;81.60;;;;;;4996459;28;19941;-75
2023/05/01 05:22:11;;;;;;;;;;;12.40;81.60;;;;;;5000690;28;19929;-75
2023/05/01 05:24:37;;;;;;;;;;;12.40;81.40;;;;;;5007347;28;20026;-75
2023/05/01 05:27:05;;;;;;;;;;;12.30;80.80;;;;;;4998314;28;19933;-76
2023/05/01 05:29:31;;;;;;;;;;;12.30;81.00;;;;;;4997424;28;20008;-76
2023/05/01 05:31:58;;;;;;;;;;;12.20;81.00;;;;;;5002195;28;20906;-76
2023/05/01 05:34:26;;;;;;;;;;;12.20;81.10;;;;;;5002029;28;19929;-76
2023/05/01 05:36:52;;;;;;;;;;;12.20;81.20;;;;;;4999377;28;19930;-75
2023/05/01 05:39:21;;;;;;;;;;;12.20;81.30;;;;;;5001423;28;19929;-76
2023/05/01 05:41:48;;;;;;;;;;;12.20;81.40;;;;;;5000438;28;19930;-76
2023/05/01 05:44:14;;;;;;;;;;;12.20;81.40;;;;;;5003184;28;19964;-76
2023/05/01 05:46:41;;;;;;;;;;;12.20;81.50;;;;;;5005703;28;19936;-76
2023/05/01 05:49:08;;;;;;;;;;;12.20;81.50;;;;;;5004097;28;19936;-76
2023/05/01 05:51:35;;;;;;;;;;;12.20;81.50;;;;;;5000954;28;19933;-76
2023/05/01 05:54:02;;;;;;;;;;;12.20;81.60;;;;;;5000306;28;19929;-76
2023/05/01 05:56:29;;;;;;;;;;;12.20;81.60;;;;;;5003028;28;19930;-76
2023/05/01 05:58:55;;;;;;;;;;;12.20;81.70;;;;;;4999853;28;19933;-75
2023/05/01 06:01:22;;;;;;;;;;;12.20;81.70;;;;;;4999074;28;19929;-76
2023/05/01 06:03:48;;;;;;;;;;;12.20;81.70;;;;;;5002904;28;19933;-76
2023/05/01 06:06:15;;;;;;;;;;;12.20;81.80;;;;;;5004199;28;19936;-76
2023/05/01 06:08:45;;;;;;;;;;;12.20;81.80;;;;;;4997068;28;20672;-76
2023/05/01 06:11:11;;;;;;;;;;;12.20;81.70;;;;;;5001156;28;19940;-76
2023/05/01 06:13:38;;;;;;;;;;;12.20;81.70;;;;;;4999799;28;19941;-76
2023/05/01 06:16:06;;;;;;;;;;;12.20;81.70;;;;;;5002818;28;19934;-76
2023/05/01 06:18:32;;;;;;;;;;;12.20;81.70;;;;;;5001913;28;19962;-76
2023/05/01 06:20:59;;;;;;;;;;;12.20;81.70;;;;;;5000358;28;19936;-76
2023/05/01 06:23:26;;;;;;;;;;;12.20;81.70;;;;;;5006743;28;19984;-76
2023/05/01 06:25:54;;;;;;;;;;;12.20;81.70;;;;;;5006564;28;20427;-76
2023/05/01 06:28:21;;;;;;;;;;;12.20;81.70;;;;;;4999966;28;20008;-76
2023/05/01 06:30:47;;;;;;;;;;;12.20;81.60;;;;;;5001915;28;19941;-76
2023/05/01 06:33:14;;;;;;;;;;;12.20;81.60;;;;;;5003329;28;20474;-76
2023/05/01 06:35:40;;;;;;;;;;;12.20;81.50;;;;;;5000056;28;19930;-76
2023/05/01 06:38:07;;;;;;;;;;;12.20;81.50;;;;;;4997305;28;19937;-76
2023/05/01 06:40:34;;;;;;;;;;;12.30;81.50;;;;;;5000692;28;19937;-76
2023/05/01 06:43:02;;;;;;;;;;;12.20;81.40;;;;;;5002788;28;20004;-77
2023/05/01 06:45:28;;;;;;;;;;;12.30;81.50;;;;;;5005372;28;19930;-76
2023/05/01 06:47:55;;;;;;;;;;;12.30;81.50;;;;;;5001500;28;19956;-76
2023/05/01 06:50:21;;;;;;;;;;;12.30;81.50;;;;;;4997402;28;19929;-76
2023/05/01 06:52:48;;;;;;;;;;;12.30;81.50;;;;;;5002841;28;20280;-76
2023/05/01 06:55:15;;;;;;;;;;;12.30;81.50;;;;;;4999544;28;19933;-77
2023/05/01 06:57:41;;;;;;;;;;;12.30;81.50;;;;;;5001262;28;19963;-77
2023/05/01 07:00:10;;;;;;;;;;;12.30;81.40;;;;;;5008624;28;19935;-76
2023/05/01 07:02:39;;;;;;;;;;;12.30;81.40;;;;;;5000602;28;19929;-76
2023/05/01 07:05:06;;;;;;;;;;;12.40;81.40;;;;;;4999990;28;19936;-76
2023/05/01 07:07:32;;;;;;;;;;;12.30;81.30;;;;;;5001394;28;20558;-76
2023/05/01 07:09:59;;;;;;;;;;;12.40;81.40;;;;;;5002524;28;19929;-76
2023/05/01 07:12:25;;;;;;;;;;;12.30;81.20;;;;;;4998606;28;19933;-76
2023/05/01 07:14:52;;;;;;;;;;;12.30;81.30;;;;;;4999848;28;19936;-76
2023/05/01 07:17:20;;;;;;;;;;;12.40;81.30;;;;;;4996357;28;19937;-76
2023/05/01 07:19:46;;;;;;;;;;;12.40;81.30;;;;;;4995278;28;19936;-76
2023/05/01 07:22:13;;;;;;;;;;;12.40;81.30;;;;;;5001356;28;19936;-77
2023/05/01 07:24:39;;;;;;;;;;;12.40;81.30;;;;;;5002536;28;19929;-77
2023/05/01 07:27:06;;;;;;;;;;;12.40;81.30;;;;;;4996634;28;19937;-76
2023/05/01 07:29:33;;;;;;;;;;;12.50;81.30;;;;;;5001794;28;19937;-76
2023/05/01 07:32:00;;;;;;;;;;;12.50;81.30;;;;;;5004290;28;19936;-77
2023/05/01 07:34:28;;;;;;;;;;;12.50;81.20;;;;;;4999778;28;19933;-77
2023/05/01 07:36:55;;;;;;;;;;;12.50;81.20;;;;;;5000281;28;19933;-76
2023/05/01 07:39:21;;;;;;;;;;;12.50;81.20;;;;;;4998052;28;19929;-76
2023/05/01 07:41:48;;;;;;;;;;;12.50;81.10;;;;;;5001421;28;20445;-76
2023/05/01 07:44:14;;;;;;;;;;;12.50;81.10;;;;;;5003236;28;19964;-77
2023/05/01 07:46:41;;;;;;;;;;;12.50;81.10;;;;;;4997489;28;19929;-76
2023/05/01 07:49:07;;;;;;;;;;;12.50;81.20;;;;;;5005623;28;19957;-76
2023/05/01 07:51:35;;;;;;;;;;;12.60;81.20;;;;;;4999549;28;19936;-76
2023/05/01 07:54:03;;;;;;;;;;;12.50;81.20;;;;;;5000685;28;19926;-77
2023/05/01 07:56:29;;;;;;;;;;;12.60;81.20;;;;;;4996477;28;19929;-76
2023/05/01 07:58:56;;;;;;;;;;;12.60;81.20;;;;;;4994743;28;19925;-76
2023/05/01 08:01:23;;;;;;;;;;;12.60;81.20;;;;;;4997378;28;19936;-76
2023/05/01 08:03:49;;;;;;;;;;;12.60;81.30;;;;;;4994264;28;19926;-76
2023/05/01 08:06:16;;;;;;;;;;;12.60;81.30;;;;;;4998884;28;19926;-77
2023/05/01 08:08:44;;;;;;;;;;;12.60;81.30;;;;;;4996922;28;19933;-76
2023/05/01 08:11:11;;;;;;;;;;;12.60;81.30;;;;;;4998713;28;19932;-76
2023/05/01 08:13:37;;;;;;;;;;;12.60;81.30;;;;;;5002495;28;19933;-76
2023/05/01 08:16:04;;;;;;;;;;;12.60;81.30;;;;;;5000620;28;19933;-76
2023/05/01 08:18:31;;;;;;;;;;;12.70;81.30;;;;;;5002302;28;19932;-76
2023/05/01 08:20:57;;;;;;;;;;;12.70;81.20;;;;;;4999937;28;19933;-77
2023/05/01 08:23:24;;;;;;;;;;;12.60;81.20;;;;;;5008615;28;19929;-76
2023/05/01 08:25:52;;;;;;;;;;;12.70;81.30;;;;;;5000491;28;20020;-76
2023/05/01 08:28:20;;;;;;;;;;;12.70;81.20;;;;;;4998614;28;19952;-76
2023/05/01 08:30:47;;;;;;;;;;;12.70;81.20;;;;;;4999520;28;20036;-76
2023/05/01 08:33:15;;;;;;;;;;;12.70;81.20;;;;;;5008444;28;19932;-76
2023/05/01 08:35:41;;;;;;;;;;;12.70;81.20;;;;;;4997269;28;19936;-77
2023/05/01 08:38:08;;;;;;;;;;;12.80;81.40;;;;;;5009174;28;19937;-77
2023/05/01 08:40:36;;;;;;;;;;;12.80;81.30;;;;;;5000811;28;19991;-76
2023/05/01 08:43:04;;;;;;;;;;;12.80;81.30;;;;;;5004057;28;19991;-76
2023/05/01 08:45:34;;;;;;;;;;;12.80;81.20;;;;;;4999552;28;19993;-75
2023/05/01 08:48:04;;;;;;;;;;;12.90;81.20;;;;;;4997784;28;19940;-77
2023/05/01 08:50:31;;;;;;;;;;;12.80;81.10;;;;;;4989138;28;19937;-78
2023/05/01 08:52:58;;;;;;;;;;;12.90;81.20;;;;;;5000227;28;19929;-76
2023/05/01 08:55:26;;;;;;;;;;;12.90;81.20;;;;;;4995616;28;19937;-76
2023/05/01 08:57:52;;;;;;;;;;;13.00;81.20;;;;;;4992492;28;19930;-76
2023/05/01 09:00:21;;;;;;;;;;;13.00;81.10;;;;;;4995069;28;19937;-76
2023/05/01 09:02:48;;;;;;;;;;;13.00;81.10;;;;;;4997935;28;20044;-76
2023/05/01 09:05:15;;;;;;;;;;;13.10;81.00;;;;;;4996184;28;20126;-76
2023/05/01 09:07:42;;;;;;;;;;;13.10;81.00;;;;;;4994894;28;19933;-76
2023/05/01 09:10:09;;;;;;;;;;;13.10;80.80;;;;;;4995910;28;19937;-76
2023/05/01 09:12:36;;;;;;;;;;;13.10;80.80;;;;;;4995661;28;20505;-76
2023/05/01 09:15:03;;;;;;;;;;;13.20;80.80;;;;;;4998005;28;19936;-77
2023/05/01 09:17:31;;;;;;;;;;;13.20;80.70;;;;;;5002899;28;19936;-76
2023/05/01 09:19:59;;;;;;;;;;;13.30;81.50;;;;;;5004399;28;19960;-76
2023/05/01 09:22:25;;;;;;;;;;;13.30;80.80;;;;;;5000072;28;19936;-75
2023/05/01 09:24:52;;;;;;;;;;;13.30;80.70;;;;;;4997504;28;19941;-76
2023/05/01 09:27:19;;;;;;;;;;;13.30;80.80;;;;;;5000417;28;19930;-76
2023/05/01 09:29:46;;;;;;;;;;;13.40;80.70;;;;;;5001870;28;20024;-76
2023/05/01 09:32:15;;;;;;;;;;;13.40;80.70;;;;;;5000571;28;19941;-76
2023/05/01 09:34:43;;;;;;;;;;;13.50;80.80;;;;;;4999626;28;21883;-77
2023/05/01 09:37:10;;;;;;;;;;;13.40;80.70;;;;;;5000985;28;19965;-77
2023/05/01 09:39:37;;;;;;;;;;;13.50;80.80;;;;;;5000968;28;19934;-76
2023/05/01 09:42:04;;;;;;;;;;;13.50;80.80;;;;;;4998511;28;19936;-76
2023/05/01 09:44:31;;;;;;;;;;;13.50;80.60;;;;;;5000309;28;19940;-76
2023/05/01 09:46:57;;;;;;;;;;;13.50;80.50;;;;;;5002117;28;20308;-76
2023/05/01 09:49:43;;;;;;;;;;;13.60;80.50;;;;;;5001286;28;20078;-76
2023/05/01 09:52:14;;;;;;;;;;;13.60;80.40;;;;;;4995784;28;20391;-76
2023/05/01 09:54:41;;;;;;;;;;;13.70;80.50;;;;;;4998489;28;19929;-76
2023/05/01 09:57:08;;;;;;;;;;;13.70;80.50;;;;;;4997535;28;19929;-76
2023/05/01 09:59:35;;;;;;;;;;;13.70;80.40;;;;;;4995451;28;19972;-76
2023/05/01 10:02:02;;;;;;;;;;;13.70;80.50;;;;;;4998354;28;19937;-76
2023/05/01 10:04:31;;;;;;;;;;;13.80;80.40;;;;;;4998006;28;19929;-76
2023/05/01 10:06:58;;;;;;;;;;;13.80;80.30;;;;;;4997861;28;20082;-76
2023/05/01 10:09:29;;;;;;;;;;;13.90;80.20;;;;;;4993632;28;19930;-77
2023/05/01 10:11:57;;;;;;;;;;;13.90;80.10;;;;;;4994692;28;20396;-76
2023/05/01 10:14:25;;;;;;;;;;;14.00;80.00;;;;;;4995398;28;19988;-76
2023/05/01 10:16:52;;;;;;;;;;;14.00;79.90;;;;;;4996405;28;20108;-76
2023/05/01 10:19:19;;;;;;;;;;;14.10;79.80;;;;;;4998406;28;20032;-76
2023/05/01 10:21:46;;;;;;;;;;;14.10;79.60;;;;;;4996480;28;19940;-77
2023/05/01 10:24:15;;;;;;;;;;;14.10;79.50;;;;;;4999880;28;20388;-76
2023/05/01 10:26:43;;;;;;;;;;;14.20;79.40;;;;;;4991836;28;20424;-76
2023/05/01 10:29:10;;;;;;;;;;;14.30;79.30;;;;;;4995713;28;19941;-77
2023/05/01 10:31:37;;;;;;;;;;;14.20;79.40;;;;;;4998205;28;19930;-76
2023/05/01 10:34:04;;;;;;;;;;;14.30;79.30;;;;;;4999134;28;19933;-76
2023/05/01 10:36:32;;;;;;;;;;;14.30;79.60;;;;;;4996810;28;19941;-76
2023/05/01 10:38:59;;;;;;;;;;;14.40;79.30;;;;;;5002931;28;19930;-77
2023/05/01 10:41:44;;;;;;;;;;;14.40;79.20;;;;;;5000229;28;19937;-77
2023/05/01 10:44:22;;;;;;;;;;;14.40;79.20;;;;;;4999057;28;20004;-77
2023/05/01 10:46:49;;;;;;;;;;;14.50;79.10;;;;;;4996718;28;20392;-77
2023/05/01 10:49:16;;;;;;;;;;;14.50;79.10;;;;;;4994632;28;19936;-77
2023/05/01 10:51:58;;;;;;;;;;;14.50;79.10;;;;;;5000932;28;19979;-76
2023/05/01 10:54:25;;;;;;;;;;;14.50;79.20;;;;;;4998704;28;20356;-76
2023/05/01 10:56:53;;;;;;;;;;;14.60;79.20;;;;;;5000020;28;20076;-77
2023/05/01 10:59:19;;;;;;;;;;;14.60;79.30;;;;;;4998205;28;20028;-77
2023/05/01 11:01:50;;;;;;;;;;;14.60;79.30;;;;;;4996844;28;19933;-77
2023/05/01 11:04:35;;;;;;;;;;;14.70;79.60;;;;;;4999983;28;19941;-78
2023/05/01 11:07:16;;;;;;;;;;;14.70;79.70;;;;;;4997839;28;19933;-77
2023/05/01 11:09:43;;;;;;;;;;;14.70;79.80;;;;;;4996973;28;19929;-77
2023/05/01 11:12:10;;;;;;;;;;;14.70;79.80;;;;;;5001012;28;20345;-77
2023/05/01 11:15:01;;;;;;;;;;;14.80;79.80;;;;;;5000082;28;20525;-77
2023/05/01 11:17:42;;;;;;;;;;;14.80;79.70;;;;;;4997432;28;19936;-76
2023/05/01 11:20:10;;;;;;;;;;;14.80;79.60;;;;;;5002601;28;19964;-78
2023/05/01 11:22:38;;;;;;;;;;;14.80;79.60;;;;;;4994731;28;19937;-76
2023/05/01 11:25:17;;;;;;;;;;;14.90;79.60;;;;;;4994043;28;19940;-76
2023/05/01 11:27:47;;;;;;;;;;;14.90;79.50;;;;;;4993528;28;20734;-77
2023/05/01 11:30:14;;;;;;;;;;;14.90;79.50;;;;;;4997908;28;19929;-77
2023/05/01 11:32:42;;;;;;;;;;;15.00;79.40;;;;;;4999550;28;20024;-77
2023/05/01 11:35:16;;;;;;;;;;;15.00;79.30;;;;;;4994120;28;19925;-77
2023/05/01 11:37:43;;;;;;;;;;;15.00;79.30;;;;;;4996971;28;20021;-78
2023/05/01 11:40:20;;;;;;;;;;;15.00;79.30;;;;;;4994220;28;20016;-76
2023/05/01 11:42:47;;;;;;;;;;;15.10;79.10;;;;;;4994247;28;20624;-77
2023/05/01 11:45:14;;;;;;;;;;;15.10;79.00;;;;;;4997841;28;19930;-76
2023/05/01 11:47:41;;;;;;;;;;;15.10;79.00;;;;;;4991525;28;19930;-77
2023/05/01 11:50:09;;;;;;;;;;;15.10;79.00;;;;;;4996483;28;19929;-77
2023/05/01 11:52:48;;;;;;;;;;;15.20;79.10;;;;;;4996384;28;20343;-78
2023/05/01 11:55:15;;;;;;;;;;;15.20;78.90;;;;;;4997710;28;19937;-77
2023/05/01 11:57:45;;;;;;;;;;;15.20;78.80;;;;;;4992672;28;19941;-77
2023/05/01 12:00:12;;;;;;;;;;;15.20;78.80;;;;;;4992478;28;20620;-77
2023/05/01 12:02:39;;;;;;;;;;;15.20;78.80;;;;;;4997872;28;20013;-77
2023/05/01 12:05:16;;;;;;;;;;;15.30;78.80;;;;;;4997109;28;19929;-77
2023/05/01 12:07:42;;;;;;;;;;;15.30;78.80;;;;;;5000687;28;20048;-77
2023/05/01 12:10:11;;;;;;;;;;;15.30;78.80;;;;;;4995462;28;19934;-77
2023/05/01 12:12:38;;;;;;;;;;;15.30;78.80;;;;;;4997309;28;19929;-77
2023/05/01 12:15:04;;;;;;;;;;;15.40;78.80;;;;;;5004940;28;19937;-77
2023/05/01 12:17:31;;;;;;;;;;;15.40;78.80;;;;;;4997120;28;19929;-77
2023/05/01 12:19:58;;;;;;;;;;;15.40;78.90;;;;;;4995315;28;20486;-76
2023/05/01 12:22:25;;;;;;;;;;;15.50;78.90;;;;;;4996936;28;20398;-77
2023/05/01 12:24:52;;;;;;;;;;;15.50;78.70;;;;;;4991781;28;19937;-76
2023/05/01 12:27:20;;;;;;;;;;;15.50;78.70;;;;;;4994075;28;20028;-77
2023/05/01 12:29:47;;;;;;;;;;;15.50;78.70;;;;;;4995732;28;20366;-78
2023/05/01 12:32:14;;;;;;;;;;;15.60;78.70;;;;;;4994157;28;19930;-77
2023/05/01 12:34:40;;;;;;;;;;;15.60;78.70;;;;;;4996470;28;19929;-78
2023/05/01 12:37:07;;;;;;;;;;;15.60;78.50;;;;;;4995766;28;20644;-76
2023/05/01 12:39:38;;;;;;;;;;;15.60;78.40;;;;;;4998032;28;20726;-77
2023/05/01 12:42:11;;;;;;;;;;;15.60;78.50;;;;;;4998413;28;19941;-76
2023/05/01 12:44:39;;;;;;;;;;;15.70;78.50;;;;;;4996661;28;19930;-76
2023/05/01 12:47:07;;;;;;;;;;;15.70;78.40;;;;;;4994801;28;19929;-77
2023/05/01 12:49:35;;;;;;;;;;;15.70;78.50;;;;;;4997019;28;19929;-76
2023/05/01 12:52:03;;;;;;;;;;;15.70;78.50;;;;;;5009048;28;20021;-77
2023/05/01 12:54:31;;;;;;;;;;;15.70;78.50;;;;;;5004502;28;20548;-76
2023/05/01 12:57:08;;;;;;;;;;;15.70;78.40;;;;;;5005804;28;19930;-76
2023/05/01 12:59:35;;;;;;;;;;;15.70;78.30;;;;;;5000359;28;19940;-76
2023/05/01 13:02:04;;;;;;;;;;;15.80;78.30;;;;;;4998677;28;20284;-76
2023/05/01 13:04:31;;;;;;;;;;;15.80;78.40;;;;;;5012324;28;19929;-76
2023/05/01 13:06:58;;;;;;;;;;;15.80;78.40;;;;;;5003556;28;19933;-76
2023/05/01 13:09:26;;;;;;;;;;;15.80;78.40;;;;;;4994996;28;19925;-76
2023/05/01 13:11:58;;;;;;;;;;;15.80;78.40;;;;;;5003625;28;19979;-76
2023/05/01 13:14:25;;;;;;;;;;;15.80;78.40;;;;;;5008557;28;19925;-76
2023/05/01 13:16:52;;;;;;;;;;;15.80;78.40;;;;;;5006884;28;19926;-76
2023/05/01 13:19:27;;;;;;;;;;;15.80;78.40;;;;;;5013269;28;19925;-76
2023/05/01 13:21:54;;;;;;;;;;;15.80;78.40;;;;;;5008526;28;19931;-76
2023/05/01 13:24:22;;;;;;;;;;;15.80;78.30;;;;;;5010361;28;19926;-76
2023/05/01 13:26:58;;;;;;;;;;;15.80;78.30;;;;;;4997651;28;20153;-76
2023/05/01 13:29:25;;;;;;;;;;;15.80;78.30;;;;;;5006604;28;20506;-76
2023/05/01 13:31:52;;;;;;;;;;;15.90;78.30;;;;;;5002772;28;19980;-76
2023/05/01 13:34:21;;;;;;;;;;;15.90;78.40;;;;;;5002714;28;19930;-76
2023/05/01 13:36:49;;;;;;;;;;;15.90;78.30;;;;;;5002553;28;19933;-76
2023/05/01 13:39:18;;;;;;;;;;;15.90;78.20;;;;;;5006243;28;19929;-76
2023/05/01 13:41:45;;;;;;;;;;;15.90;78.20;;;;;;5000730;28;20368;-76
2023/05/01 13:44:12;;;;;;;;;;;15.90;78.20;;;;;;5002607;28;19933;-76
2023/05/01 13:46:41;;;;;;;;;;;15.90;78.30;;;;;;5007594;28;19930;-76
2023/05/01 13:49:07;;;;;;;;;;;15.90;78.40;;;;;;5009407;28;19936;-76
2023/05/01 13:51:36;;;;;;;;;;;15.90;78.30;;;;;;5006597;28;20020;-76
2023/05/01 13:54:06;;;;;;;;;;;15.90;78.30;;;;;;5003605;28;19941;-76
2023/05/01 13:56:34;;;;;;;;;;;16.00;78.20;;;;;;5005545;28;20008;-76
2023/05/01 13:59:00;;;;;;;;;;;16.00;78.10;;;;;;5000997;28;19940;-76
2023/05/01 14:01:27;;;;;;;;;;;16.00;78.20;;;;;;5005154;28;20534;-76
2023/05/01 14:03:55;;;;;;;;;;;16.00;78.20;;;;;;5003185;28;19933;-76
2023/05/01 14:06:23;;;;;;;;;;;16.00;78.10;;;;;;5009667;28;20068;-77
2023/05/01 14:08:50;;;;;;;;;;;16.10;78.00;;;;;;5003704;28;19941;-76
2023/05/01 14:11:18;;;;;;;;;;;16.10;78.00;;;;;;5005499;28;19941;-76
2023/05/01 14:13:45;;;;;;;;;;;16.10;78.00;;;;;;5007525;28;19937;-77
2023/05/01 14:16:17;;;;;;;;;;;16.20;77.90;;;;;;4996959;28;19936;-77
2023/05/01 14:18:44;;;;;;;;;;;16.20;77.50;;;;;;5009528;28;19936;-76
2023/05/01 14:21:11;;;;;;;;;;;16.20;77.30;;;;;;5006174;28;20044;-77